Time;durP1;ratioP1;P1;durP2;ratioP2;P2;SDS_P1;SDS_P2;PMS_P1;PMS_P2;Temp;Humidity;BMP_temperature;BMP_pressure;BME280_temperature;BME280_humidity;BME280_pressure;Samples;Min_cycle;Max_cycle;Signal;HPM_P1;HPM_P2
2022/08/09 00:02:18;;;;;;;5.95;1.35;;;41.10;44.80;;;;;;4953490;28;20046;-67
2022/08/09 00:04:44;;;;;;;6.60;1.63;;;41.60;58.20;;;;;;4952875;28;20031;-64
2022/08/09 00:07:11;;;;;;;8.93;1.70;;;;;;;;;;4970098;28;20092;-66
2022/08/09 00:09:37;;;;;;;10.45;1.63;;;41.70;57.40;;;;;;4936800;28;20469;-65
2022/08/09 00:12:04;;;;;;;5.43;1.70;;;41.60;58.10;;;;;;4970077;28;20031;-66
2022/08/09 00:14:31;;;;;;;5.35;1.70;;;40.70;57.40;;;;;;4952846;28;20050;-66
2022/08/09 00:16:57;;;;;;;4.72;1.40;;;41.00;57.80;;;;;;4952670;28;20027;-64
2022/08/09 00:19:24;;;;;;;7.60;1.30;;;40.90;44.30;;;;;;4953032;28;20033;-65
2022/08/09 00:21:50;;;;;;;5.22;1.55;;;40.80;44.60;;;;;;4954091;28;20051;-66
2022/08/09 00:24:17;;;;;;;12.40;2.10;;;40.70;44.90;;;;;;4952841;28;20023;-65
2022/08/09 00:26:44;;;;;;;20.35;2.10;;;40.70;44.70;;;;;;4966769;28;20114;-64
2022/08/09 00:29:10;;;;;;;8.15;1.92;;;40.70;44.80;;;;;;4950473;28;20030;-64
2022/08/09 00:31:37;;;;;;;7.15;1.70;;;40.70;44.90;;;;;;4952479;28;20048;-65
2022/08/09 00:34:03;;;;;;;18.67;2.20;;;40.40;57.70;;;;;;4952067;28;20979;-66
2022/08/09 00:36:30;;;;;;;7.78;1.83;;;40.70;45.10;;;;;;4951874;28;20034;-66
2022/08/09 00:38:57;;;;;;;6.38;1.60;;;40.10;58.40;;;;;;4969582;28;20034;-66
2022/08/09 00:41:23;;;;;;;5.47;2.15;;;39.80;44.70;;;;;;4956145;28;20026;-68
2022/08/09 00:43:51;;;;;;;7.72;2.10;;;40.70;60.60;;;;;;4974674;28;20089;-66
2022/08/09 00:46:18;;;;;;;8.80;2.10;;;40.30;45.50;;;;;;4952457;28;20723;-66
2022/08/09 00:48:45;;;;;;;6.13;1.80;;;39.80;61.80;;;;;;4968633;28;20027;-67
2022/08/09 00:51:15;;;;;;;5.95;1.63;;;39.80;63.30;;;;;;4968820;28;20022;-67
2022/08/09 00:53:41;;;;;;;9.75;2.08;;;39.50;61.00;;;;;;4952360;28;20118;-66
2022/08/09 00:56:08;;;;;;;5.68;1.73;;;39.60;44.20;;;;;;4952152;28;20031;-66
2022/08/09 00:58:35;;;;;;;11.50;1.65;;;;;;;;;;4935942;28;20027;-65
2022/08/09 01:01:21;;;;;;;7.43;1.95;;;39.40;43.90;;;;;;4969259;28;20027;-65
2022/08/09 01:04:01;;;;;;;7.65;1.83;;;38.70;61.40;;;;;;4973282;28;20485;-67
2022/08/09 01:07:03;;;;;;;8.63;1.90;;;38.80;43.60;;;;;;4953682;28;20508;-66
2022/08/09 01:09:42;;;;;;;6.38;1.77;;;38.80;61.80;;;;;;4898472;29;20043;-67
2022/08/09 01:13:13;;;;;;;7.00;2.25;;;39.50;61.50;;;;;;4899449;29;20547;-66
2022/08/09 01:15:44;;;;;;;7.70;1.92;;;39.20;59.40;;;;;;4802659;29;20062;-66
2022/08/09 01:18:15;;;;;;;8.52;1.60;;;38.70;57.40;;;;;;4801697;29;20035;-65
2022/08/09 01:21:03;;;;;;;7.60;1.70;;;38.70;59.90;;;;;;4788414;29;20126;-67
2022/08/09 01:23:47;;;;;;;9.85;1.83;;;38.80;60.10;;;;;;4803157;29;20031;-66
2022/08/09 01:26:50;;;;;;;8.50;1.85;;;38.70;59.20;;;;;;4803248;29;20038;-66
2022/08/09 01:29:21;;;;;;;5.80;1.80;;;38.70;54.50;;;;;;4803819;29;20041;-67
2022/08/09 01:31:50;;;;;;;21.25;2.38;;;38.60;46.80;;;;;;4787544;29;20043;-66
2022/08/09 01:34:20;;;;;;;5.82;1.58;;;38.50;59.80;;;;;;4794851;29;20062;-65
2022/08/09 01:36:48;;;;;;;10.60;1.92;;;38.40;61.50;;;;;;4802468;29;20061;-65
2022/08/09 01:39:16;;;;;;;10.85;1.90;;;38.90;60.10;;;;;;4819231;29;20087;-60
2022/08/09 01:41:44;;;;;;;4.65;1.60;;;39.00;59.90;;;;;;4819348;29;20084;-62
2022/08/09 01:44:13;;;;;;;11.38;2.17;;;39.40;61.60;;;;;;4805534;29;20034;-62
2022/08/09 01:46:44;;;;;;;7.65;1.67;;;39.60;52.90;;;;;;4881870;29;20119;-61
2022/08/09 01:49:19;;;;;;;78.03;6.63;;;39.60;46.20;;;;;;4878741;29;20032;-61
2022/08/09 01:51:50;;;;;;;96.82;8.45;;;39.00;60.80;;;;;;4891173;28;20043;-60
2022/08/09 01:54:18;;;;;;;104.45;9.88;;;37.80;61.40;;;;;;4951630;28;20508;-59
2022/08/09 01:56:47;;;;;;;51.20;6.15;;;38.00;62.10;;;;;;4936338;28;20054;-61
2022/08/09 01:59:18;;;;;;;358.10;21.80;;;37.70;48.40;;;;;;4936217;28;20482;-62
2022/08/09 02:01:49;;;;;;;174.98;14.00;;;36.40;51.10;;;;;;4952224;28;20037;-61
2022/08/09 02:04:18;;;;;;;148.15;12.52;;;35.60;70.60;;;;;;4935502;28;20019;-58
2022/08/09 02:09:33;;;;;;;201.52;14.45;;;34.20;80.50;;;;;;4953367;28;20042;-59
2022/08/09 02:12:02;;;;;;;307.35;22.10;;;33.50;82.20;;;;;;4936131;28;20087;-60
2022/08/09 02:14:30;;;;;;;250.88;18.65;;;33.00;59.50;;;;;;4963834;28;20194;-60
2022/08/09 02:16:58;;;;;;;172.02;14.07;;;33.00;60.60;;;;;;4959426;28;20034;-60
2022/08/09 02:19:24;;;;;;;144.18;12.23;;;32.60;60.30;;;;;;4971730;28;20122;-61
2022/08/09 02:21:56;;;;;;;106.00;8.98;;;32.40;80.60;;;;;;4972207;28;20047;-60
2022/08/09 02:24:31;;;;;;;98.18;8.93;;;32.80;82.30;;;;;;4976475;28;20741;-61
2022/08/09 02:27:02;;;;;;;78.20;8.38;;;32.40;82.00;;;;;;4953965;28;20081;-59
2022/08/09 02:29:33;;;;;;;54.45;5.53;;;32.40;79.50;;;;;;4954553;28;20048;-62
2022/08/09 02:32:02;;;;;;;60.00;6.13;;;32.30;81.20;;;;;;4955236;28;20217;-61
2022/08/09 02:34:33;;;;;;;55.95;6.65;;;32.50;84.70;;;;;;4939949;28;20087;-60
2022/08/09 02:37:02;;;;;;;62.25;7.90;;;31.90;63.60;;;;;;4971440;28;20161;-60
2022/08/09 02:39:49;;;;;;;51.22;6.10;;;31.90;84.10;;;;;;4966706;28;20060;-60
2022/08/09 02:42:26;;;;;;;45.13;5.47;;;31.90;63.10;;;;;;4938519;28;20050;-61
2022/08/09 02:45:01;;;;;;;37.08;4.85;;;31.40;87.40;;;;;;4953521;28;20149;-60
2022/08/09 02:47:29;;;;;;;26.52;3.78;;;32.40;86.80;;;;;;4953593;28;20532;-59
2022/08/09 02:50:05;;;;;;;25.80;3.72;;;32.30;65.70;;;;;;4954370;28;20101;-61
2022/08/09 02:52:38;;;;;;;24.80;3.50;;;31.60;85.00;;;;;;4953033;28;20049;-59
2022/08/09 02:55:08;;;;;;;29.33;2.90;;;31.80;84.40;;;;;;4936477;28;20075;-61
2022/08/09 02:57:36;;;;;;;26.77;4.03;;;31.70;83.90;;;;;;4954167;28;20534;-60
2022/08/09 03:00:04;;;;;;;18.70;3.05;;;32.00;85.20;;;;;;4954663;28;20186;-61
2022/08/09 03:02:31;;;;;;;12.55;3.05;;;32.30;70.50;;;;;;4938202;28;20464;-61
2022/08/09 03:04:59;;;;;;;18.30;3.67;;;32.20;62.00;;;;;;4953503;28;20042;-63
2022/08/09 03:29:51;;;;;;;9.70;2.15;;;32.90;92.20;;;;;;5066810;28;20423;-64
2022/08/09 03:32:18;;;;;;;12.15;2.28;;;33.00;60.50;;;;;;5047378;28;20055;-64
2022/08/09 03:34:45;;;;;;;14.75;2.22;;;;;;;;;;5063681;28;20029;-64
2022/08/09 03:37:12;;;;;;;11.70;2.20;;;;;;;;;;5047363;28;20041;-66
2022/08/09 03:39:38;;;;;;;9.50;2.40;;;33.20;89.20;;;;;;5063543;28;20066;-66
2022/08/09 03:42:04;;;;;;;6.82;2.17;;;33.20;68.10;;;;;;5064123;28;20021;-65
2022/08/09 03:44:32;;;;;;;17.98;3.28;;;33.30;59.60;;;;;;5064136;28;20029;-67
2022/08/09 03:46:58;;;;;;;18.48;3.00;;;33.20;83.30;;;;;;5066768;28;20024;-65
2022/08/09 03:49:26;;;;;;;26.75;3.30;;;33.10;60.00;;;;;;5064473;28;20064;-64
2022/08/09 03:51:57;;;;;;;13.18;2.55;;;33.10;59.60;;;;;;5063047;28;20031;-65
2022/08/09 03:54:25;;;;;;;18.65;3.15;;;32.90;61.70;;;;;;5064570;28;20033;-65
2022/08/09 03:56:53;;;;;;;17.40;2.40;;;33.00;61.70;;;;;;5031738;28;20446;-65
2022/08/09 03:59:20;;;;;;;21.08;2.75;;;33.00;59.60;;;;;;5063117;28;20048;-64
2022/08/09 04:01:47;;;;;;;14.75;2.63;;;32.90;83.80;;;;;;5046706;28;20507;-65
2022/08/09 04:04:15;;;;;;;14.00;2.67;;;33.10;86.20;;;;;;5062432;28;20061;-65
2022/08/09 04:06:42;;;;;;;23.17;3.22;;;33.00;60.10;;;;;;5063434;28;20048;-64
2022/08/09 04:09:08;;;;;;;24.10;3.33;;;;;;;;;;5062780;28;20028;-65
2022/08/09 04:11:50;;;;;;;15.77;2.97;;;33.00;60.30;;;;;;5063717;28;20032;-65
2022/08/09 04:14:18;;;;;;;11.93;2.83;;;32.90;89.60;;;;;;5062619;28;20036;-64
2022/08/09 04:16:45;;;;;;;14.57;3.30;;;;;;;;;;5063229;28;20021;-64
2022/08/09 04:19:12;;;;;;;18.33;3.40;;;;;;;;;;5062607;28;20031;-64
2022/08/09 04:21:39;;;;;;;19.77;3.88;;;33.00;90.50;;;;;;5049663;28;20064;-64
2022/08/09 04:24:06;;;;;;;29.17;4.65;;;32.80;90.20;;;;;;5062267;28;20021;-65
2022/08/09 04:26:33;;;;;;;15.05;4.00;;;32.90;62.50;;;;;;5045805;28;20025;-65
2022/08/09 04:28:59;;;;;;;20.85;4.20;;;32.70;83.80;;;;;;5044552;28;20127;-64
2022/08/09 04:31:26;;;;;;;15.75;3.28;;;;;;;;;;5033677;28;20112;-64
2022/08/09 04:33:52;;;;;;;19.83;3.47;;;32.70;63.20;;;;;;5035300;28;20388;-64
2022/08/09 04:36:22;;;;;;;25.92;4.35;;;32.70;91.20;;;;;;5036051;28;20029;-65
2022/08/09 04:38:49;;;;;;;16.60;3.78;;;32.90;88.30;;;;;;5032292;28;20448;-65
2022/08/09 04:41:15;;;;;;;29.30;3.75;;;32.70;84.10;;;;;;5035382;28;20498;-67
2022/08/09 04:43:42;;;;;;;34.83;5.10;;;32.90;71.30;;;;;;5035313;28;20117;-65
2022/08/09 04:46:10;;;;;;;23.75;4.00;;;32.70;87.00;;;;;;5039046;28;20054;-64
2022/08/09 04:48:36;;;;;;;17.90;4.20;;;32.80;85.00;;;;;;5045656;28;20153;-66
2022/08/09 04:51:02;;;;;;;24.52;3.80;;;33.00;85.30;;;;;;5033140;28;20148;-65
2022/08/09 04:53:29;;;;;;;13.85;3.20;;;32.90;87.90;;;;;;5035869;28;20422;-65
2022/08/09 04:55:55;;;;;;;23.45;3.85;;;32.80;75.10;;;;;;5034377;28;20094;-65
2022/08/09 04:58:21;;;;;;;22.75;3.58;;;32.80;88.40;;;;;;5040233;28;20040;-66
2022/08/09 05:00:48;;;;;;;21.52;4.22;;;;;;;;;;5040669;28;20048;-66
2022/08/09 05:03:14;;;;;;;19.38;3.35;;;32.90;86.60;;;;;;5049262;28;20196;-65
2022/08/09 05:05:41;;;;;;;18.50;3.35;;;;;;;;;;5039876;28;20081;-64
2022/08/09 05:08:07;;;;;;;16.20;3.40;;;;;;;;;;5036227;28;20090;-65
2022/08/09 05:10:34;;;;;;;19.55;3.85;;;;;;;;;;5035683;28;20404;-65
2022/08/09 05:13:00;;;;;;;19.63;3.80;;;33.00;75.30;;;;;;5037126;28;20048;-66
2022/08/09 05:15:27;;;;;;;22.35;4.32;;;32.90;63.40;;;;;;5036476;28;20056;-64
2022/08/09 05:17:53;;;;;;;18.15;3.20;;;33.10;86.60;;;;;;5045587;28;20065;-66
2022/08/09 05:20:20;;;;;;;18.00;3.60;;;33.00;86.90;;;;;;5036208;28;20146;-65
2022/08/09 05:22:49;;;;;;;21.73;3.78;;;33.00;88.20;;;;;;5041999;28;20053;-65
2022/08/09 05:25:15;;;;;;;21.10;3.55;;;32.90;88.30;;;;;;5036346;28;20056;-66
2022/08/09 05:27:42;;;;;;;19.15;3.78;;;33.10;88.10;;;;;;5034237;28;20184;-65
2022/08/09 05:30:09;;;;;;;20.45;4.28;;;32.70;90.10;;;;;;5032765;28;20037;-65
2022/08/09 05:32:35;;;;;;;25.55;4.35;;;;;;;;;;5024962;28;20056;-66
2022/08/09 05:35:02;;;;;;;14.25;3.38;;;32.70;90.70;;;;;;5042387;28;20039;-65
2022/08/09 05:37:29;;;;;;;21.58;3.85;;;32.60;66.70;;;;;;5037744;28;20063;-63
2022/08/09 05:39:57;;;;;;;21.00;3.95;;;;;;;;;;5046570;28;20506;-67
2022/08/09 05:42:24;;;;;;;19.50;4.25;;;32.70;88.80;;;;;;5032428;28;20110;-67
2022/08/09 05:44:51;;;;;;;32.10;4.32;;;32.60;73.50;;;;;;5014237;28;20041;-65
2022/08/09 05:47:23;;;;;;;28.98;4.88;;;32.60;66.00;;;;;;5035032;28;20057;-64
2022/08/09 05:49:54;;;;;;;27.50;4.57;;;32.50;84.90;;;;;;5017787;28;20051;-66
2022/08/09 05:52:22;;;;;;;75.03;7.38;;;32.80;86.60;;;;;;5036520;28;20074;-64
2022/08/09 05:54:49;;;;;;;32.30;5.32;;;32.80;87.50;;;;;;5032746;28;20045;-63
2022/08/09 05:57:15;;;;;;;35.97;5.60;;;32.50;90.00;;;;;;5037113;28;20566;-64
2022/08/09 05:59:42;;;;;;;31.95;4.72;;;;;;;;;;5032734;28;20037;-67
2022/08/09 06:02:08;;;;;;;40.08;5.72;;;33.70;65.80;;;;;;5032838;28;20083;-67
2022/08/09 06:04:39;;;;;;;60.13;17.33;;;32.20;73.90;;;;;;5033579;28;20047;-65
2022/08/09 06:07:06;;;;;;;47.20;21.58;;;;;;;;;;5035838;28;20044;-65
2022/08/09 06:09:32;;;;;;;39.90;6.00;;;33.00;91.00;;;;;;5035695;28;20083;-65
2022/08/09 06:11:59;;;;;;;35.05;5.53;;;;;;;;;;5038823;28;20569;-65
2022/08/09 06:14:25;;;;;;;21.67;4.25;;;32.80;90.80;;;;;;5037719;28;20040;-65
2022/08/09 06:16:54;;;;;;;19.80;4.65;;;;;;;;;;5034377;28;20381;-67
2022/08/09 06:19:20;;;;;;;34.35;5.20;;;;;;;;;;5035905;28;20025;-65
2022/08/09 06:21:47;;;;;;;20.75;4.20;;;32.60;90.60;;;;;;5034871;28;20037;-65
2022/08/09 06:24:13;;;;;;;25.40;3.90;;;32.60;90.20;;;;;;5035609;28;20048;-65
2022/08/09 06:26:40;;;;;;;21.90;3.40;;;32.40;89.80;;;;;;5039487;28;20064;-64
2022/08/09 06:29:08;;;;;;;21.30;3.42;;;32.50;89.90;;;;;;5021548;28;20549;-67
2022/08/09 06:31:36;;;;;;;47.75;5.07;;;32.50;90.50;;;;;;5036188;28;20413;-66
2022/08/09 06:34:04;;;;;;;23.05;3.38;;;32.40;65.30;;;;;;5040319;28;20161;-68
2022/08/09 06:36:31;;;;;;;15.15;2.97;;;32.30;90.30;;;;;;5035805;28;20068;-66
2022/08/09 06:38:58;;;;;;;12.40;2.78;;;;;;;;;;5033549;28;20475;-67
2022/08/09 06:41:24;;;;;;;13.95;2.83;;;32.30;87.80;;;;;;5038574;28;20393;-66
2022/08/09 06:43:51;;;;;;;19.23;3.10;;;32.30;72.70;;;;;;5036425;28;20043;-66
2022/08/09 06:46:17;;;;;;;22.27;2.83;;;32.40;88.90;;;;;;5037036;28;20489;-66
2022/08/09 06:48:43;;;;;;;13.35;3.42;;;32.30;86.20;;;;;;5033398;28;20417;-66
2022/08/09 06:51:10;;;;;;;16.80;3.53;;;32.50;89.00;;;;;;5033319;28;20162;-66
2022/08/09 06:53:38;;;;;;;13.60;3.40;;;32.40;75.00;;;;;;5037001;28;20045;-65
2022/08/09 06:56:05;;;;;;;14.95;2.90;;;32.10;74.30;;;;;;5035080;28;20057;-65
2022/08/09 06:58:31;;;;;;;22.00;3.22;;;32.10;90.30;;;;;;5037621;28;20072;-66
2022/08/09 07:00:58;;;;;;;10.45;2.47;;;31.90;90.50;;;;;;5036029;28;20042;-68
2022/08/09 07:03:25;;;;;;;10.80;2.60;;;32.30;89.60;;;;;;5012341;28;20456;-67
2022/08/09 07:05:51;;;;;;;12.65;3.08;;;;;;;;;;5033083;28;20083;-65
2022/08/09 07:08:18;;;;;;;17.92;3.20;;;31.90;90.40;;;;;;5032506;28;20050;-65
2022/08/09 07:10:44;;;;;;;13.68;3.13;;;32.30;83.30;;;;;;5032177;28;20469;-65
2022/08/09 07:13:11;;;;;;;16.77;3.78;;;32.80;88.50;;;;;;5032185;28;20044;-66
2022/08/09 07:15:37;;;;;;;14.10;2.83;;;32.00;65.90;;;;;;5032181;28;20136;-65
2022/08/09 07:18:03;;;;;;;10.10;2.78;;;32.00;88.20;;;;;;5038888;28;20057;-67
2022/08/09 07:20:30;;;;;;;9.48;2.17;;;32.00;66.60;;;;;;5039143;28;20507;-66
2022/08/09 07:22:56;;;;;;;5.68;2.10;;;32.00;76.00;;;;;;5019086;28;20096;-67
2022/08/09 07:25:22;;;;;;;8.80;2.35;;;32.00;90.10;;;;;;5016399;28;20052;-65
2022/08/09 07:27:49;;;;;;;10.27;2.45;;;32.30;71.00;;;;;;5032978;28;20077;-66
2022/08/09 07:30:15;;;;;;;8.98;2.58;;;;;;;;;;5032303;28;20063;-63
2022/08/09 07:32:42;;;;;;;11.25;1.88;;;31.90;68.20;;;;;;5043760;28;20133;-65
2022/08/09 07:35:11;;;;;;;15.38;2.47;;;32.10;77.80;;;;;;5037377;28;20079;-64
2022/08/09 07:37:39;;;;;;;14.38;2.47;;;31.90;67.90;;;;;;5056961;28;20054;-65
2022/08/09 07:40:06;;;;;;;13.80;2.28;;;32.00;77.50;;;;;;5038060;28;20052;-68
2022/08/09 07:42:32;;;;;;;8.32;2.08;;;31.70;87.70;;;;;;5036650;28;20052;-66
2022/08/09 07:44:59;;;;;;;8.65;2.58;;;31.80;89.00;;;;;;5031642;28;20059;-66
2022/08/09 07:47:26;;;;;;;11.63;2.83;;;32.00;90.00;;;;;;5028640;28;20063;-65
2022/08/09 07:49:52;;;;;;;12.50;2.08;;;31.80;67.60;;;;;;5032245;28;20081;-65
2022/08/09 07:52:18;;;;;;;14.45;2.75;;;31.60;68.00;;;;;;5034906;28;20190;-66
2022/08/09 07:54:45;;;;;;;9.65;2.47;;;32.00;67.30;;;;;;5033862;28;20038;-64
2022/08/09 07:57:13;;;;;;;18.02;3.20;;;31.50;89.70;;;;;;5031616;28;20398;-66
2022/08/09 07:59:39;;;;;;;14.82;2.75;;;;;;;;;;5030510;28;20463;-64
2022/08/09 08:02:06;;;;;;;12.52;2.53;;;31.80;67.80;;;;;;5043493;28;20118;-65
2022/08/09 08:04:35;;;;;;;11.43;2.58;;;;;;;;;;5030999;28;20038;-65
2022/08/09 08:07:03;;;;;;;15.63;2.45;;;31.70;88.80;;;;;;5036988;28;20084;-67
2022/08/09 08:09:30;;;;;;;11.18;2.70;;;31.60;67.80;;;;;;5034060;28;20058;-65
2022/08/09 08:11:57;;;;;;;11.25;2.30;;;;;;;;;;5034265;28;20044;-65
2022/08/09 08:14:23;;;;;;;14.43;2.10;;;31.70;90.50;;;;;;5037413;28;20047;-65
2022/08/09 08:16:50;;;;;;;13.63;2.75;;;31.60;90.60;;;;;;5036997;28;20066;-65
2022/08/09 08:19:16;;;;;;;9.88;2.92;;;32.20;81.70;;;;;;5036051;28;20064;-65
2022/08/09 08:21:42;;;;;;;11.85;2.20;;;31.90;90.60;;;;;;5038713;28;20081;-66
2022/08/09 08:24:09;;;;;;;10.57;2.35;;;32.20;88.60;;;;;;5034693;28;20040;-66
2022/08/09 08:26:35;;;;;;;4.72;2.10;;;31.80;90.20;;;;;;5043655;28;20062;-65
2022/08/09 08:29:02;;;;;;;12.07;2.05;;;;;;;;;;5048669;28;20089;-67
2022/08/09 08:31:28;;;;;;;11.20;2.30;;;31.80;90.70;;;;;;5035907;28;20075;-65
2022/08/09 08:33:54;;;;;;;8.43;1.80;;;31.90;76.30;;;;;;5034848;28;20068;-67
2022/08/09 08:36:21;;;;;;;8.18;1.85;;;31.70;66.10;;;;;;5036402;28;20449;-66
2022/08/09 08:38:47;;;;;;;10.45;2.10;;;31.90;90.50;;;;;;5041914;28;20049;-65
2022/08/09 08:41:14;;;;;;;8.43;2.30;;;;;;;;;;5039311;28;20052;-65
2022/08/09 08:43:40;;;;;;;7.55;2.20;;;;;;;;;;5038336;28;20056;-66
2022/08/09 08:46:09;;;;;;;14.02;2.67;;;31.60;65.60;;;;;;5038085;28;20083;-66
2022/08/09 08:48:36;;;;;;;11.82;2.53;;;31.30;88.90;;;;;;5039588;28;20056;-66
2022/08/09 08:51:04;;;;;;;9.23;2.10;;;31.60;65.30;;;;;;5035047;28;20043;-66
2022/08/09 08:53:30;;;;;;;9.02;1.98;;;31.60;89.60;;;;;;5033821;28;20575;-65
2022/08/09 08:55:57;;;;;;;7.38;2.00;;;31.30;72.90;;;;;;5038518;28;20050;-65
2022/08/09 08:58:23;;;;;;;10.25;2.05;;;;;;;;;;5037420;28;20080;-65
2022/08/09 09:00:50;;;;;;;13.02;2.30;;;31.50;64.30;;;;;;5036292;28;20072;-65
2022/08/09 09:03:17;;;;;;;8.20;2.28;;;31.50;89.30;;;;;;5037192;28;20493;-65
2022/08/09 09:05:46;;;;;;;13.10;2.40;;;31.50;65.60;;;;;;5022715;28;20066;-65
2022/08/09 09:08:14;;;;;;;6.45;2.03;;;31.50;65.30;;;;;;5032366;28;20549;-67
2022/08/09 09:10:42;;;;;;;8.70;2.17;;;32.40;65.70;;;;;;5017907;28;20049;-66
2022/08/09 09:13:09;;;;;;;7.05;1.83;;;31.30;87.50;;;;;;5034051;28;20061;-65
2022/08/09 09:15:37;;;;;;;7.28;2.08;;;31.50;64.90;;;;;;5018367;28;20054;-65
2022/08/09 09:18:03;;;;;;;5.45;1.80;;;31.30;85.40;;;;;;5038439;28;20086;-65
2022/08/09 09:20:35;;;;;;;5.68;2.20;;;31.40;77.80;;;;;;5041425;28;20169;-65
2022/08/09 09:23:01;;;;;;;7.38;2.10;;;31.30;89.40;;;;;;5036750;28;20049;-65
2022/08/09 09:25:32;;;;;;;7.28;2.00;;;31.30;89.40;;;;;;5037458;28;20102;-66
2022/08/09 09:27:59;;;;;;;7.85;2.03;;;31.10;81.50;;;;;;5039048;28;20086;-65
2022/08/09 09:30:26;;;;;;;8.13;1.83;;;31.40;88.40;;;;;;5016339;28;20627;-67
2022/08/09 09:33:10;;;;;;;8.80;2.47;;;31.20;87.80;;;;;;5037472;28;20367;-65
2022/08/09 09:36:02;;;;;;;4.18;1.75;;;31.10;87.40;;;;;;5038908;28;20047;-65
2022/08/09 09:38:48;;;;;;;10.60;2.55;;;32.30;85.00;;;;;;5038598;28;20065;-65
2022/08/09 09:41:26;;;;;;;5.20;2.10;;;31.30;89.50;;;;;;5033250;28;20086;-66
2022/08/09 09:43:54;;;;;;;6.70;1.83;;;31.30;64.90;;;;;;5041759;28;20070;-66
2022/08/09 09:46:28;;;;;;;7.85;1.95;;;31.50;90.80;;;;;;5012410;28;20079;-67
2022/08/09 09:49:04;;;;;;;7.15;2.00;;;31.50;90.00;;;;;;5028450;28;20059;-65
2022/08/09 09:51:31;;;;;;;;;;;31.40;64.80;;;;;;5038886;28;20046;-65
2022/08/09 09:54:09;;;;;;;;;;;31.40;65.10;;;;;;5033811;28;19920;-68
2022/08/09 09:56:48;;;;;;;8.57;2.08;;;31.40;63.90;;;;;;5033920;28;19932;-66
2022/08/09 09:59:21;;;;;;;6.70;2.10;;;31.40;64.10;;;;;;5035441;28;20141;-65
2022/08/09 10:01:58;;;;;;;10.30;2.33;;;31.10;82.80;;;;;;5035876;28;20415;-67
2022/08/09 10:04:25;;;;;;;9.77;2.40;;;31.80;88.50;;;;;;5011425;28;20083;-64
2022/08/09 10:06:52;;;;;;;8.50;2.25;;;31.30;87.30;;;;;;5015629;28;20056;-66
2022/08/09 10:09:18;;;;;;;5.70;2.03;;;;;;;;;;5044423;28;20064;-65
2022/08/09 10:11:45;;;;;;;7.82;2.00;;;31.20;85.70;;;;;;5035102;28;20062;-67
2022/08/09 10:14:22;;;;;;;8.23;2.03;;;31.60;87.90;;;;;;5034597;28;20417;-65
2022/08/09 10:16:48;;;;;;;12.13;2.58;;;31.20;89.40;;;;;;5041059;28;20723;-65
2022/08/09 10:19:15;;;;;;;9.50;2.22;;;31.40;63.90;;;;;;5019237;28;20164;-65
2022/08/09 10:21:49;;;;;;;9.75;2.10;;;31.20;90.30;;;;;;5030937;28;20139;-64
2022/08/09 10:24:18;;;;;;;5.82;2.10;;;31.50;65.00;;;;;;5030550;28;20041;-65
2022/08/09 10:26:48;;;;;;;13.07;2.40;;;31.50;64.20;;;;;;5034444;28;20132;-64
2022/08/09 10:29:14;;;;;;;7.13;2.40;;;31.50;64.90;;;;;;5033504;28;20113;-65
2022/08/09 10:31:41;;;;;;;7.78;2.20;;;31.50;64.90;;;;;;5035253;28;20070;-68
2022/08/09 10:34:12;;;;;;;7.40;2.53;;;31.50;64.40;;;;;;5033766;28;20066;-65
2022/08/09 10:36:39;;;;;;;10.35;2.50;;;31.50;64.40;;;;;;5037532;28;20053;-66
2022/08/09 10:39:06;;;;;;;16.58;2.95;;;;;;;;;;5015229;28;20049;-65
2022/08/09 10:41:32;;;;;;;10.57;2.40;;;31.40;87.10;;;;;;5017282;28;20141;-66
2022/08/09 10:43:59;;;;;;;6.43;2.03;;;31.30;88.40;;;;;;5031371;28;20065;-65
2022/08/09 10:47:02;;;;;;;9.70;2.50;;;31.60;87.30;;;;;;5032222;28;20061;-67
2022/08/09 10:49:47;;;;;;;9.77;2.10;;;31.50;64.30;;;;;;5031223;28;20542;-65
2022/08/09 10:52:44;;;;;;;10.35;1.98;;;31.70;88.20;;;;;;5031919;28;20065;-66
2022/08/09 10:55:22;;;;;;;5.78;1.85;;;31.50;86.80;;;;;;5031299;28;20063;-66
2022/08/09 10:57:49;;;;;;;10.25;2.15;;;31.80;75.00;;;;;;5020875;28;20516;-64
2022/08/09 11:00:28;;;;;;;9.93;2.20;;;31.50;64.50;;;;;;5028324;28;20165;-64
2022/08/09 11:02:56;;;;;;;6.88;2.55;;;31.50;64.50;;;;;;5034819;28;20091;-65
2022/08/09 11:05:23;;;;;;;13.93;2.53;;;31.70;89.40;;;;;;5015268;28;20036;-65
2022/08/09 11:07:50;;;;;;;10.27;2.90;;;31.30;90.40;;;;;;5033136;28;20567;-64
2022/08/09 11:10:42;;;;;;;10.55;2.92;;;31.70;81.30;;;;;;5033323;28;20061;-65
2022/08/09 11:13:17;;;;;;;10.93;3.05;;;31.60;90.20;;;;;;5035290;28;20040;-65
2022/08/09 11:15:43;;;;;;;10.27;3.30;;;31.80;79.00;;;;;;5035440;28;20056;-68
2022/08/09 11:18:11;;;;;;;18.60;4.45;;;31.10;73.90;;;;;;5040927;28;20156;-64
2022/08/09 11:20:39;;;;;;;18.77;5.00;;;31.40;65.40;;;;;;5060303;28;20089;-65
2022/08/09 11:23:05;;;;;;;18.52;4.72;;;;;;;;;;5039776;28;20087;-66
2022/08/09 11:25:32;;;;;;;12.10;5.15;;;31.50;65.00;;;;;;5034866;28;20111;-65
2022/08/09 11:27:58;;;;;;;19.15;6.13;;;31.20;91.10;;;;;;5033927;28;20460;-66
2022/08/09 11:30:28;;;;;;;17.00;7.03;;;31.60;90.40;;;;;;5040034;28;20063;-65
2022/08/09 11:32:55;;;;;;;21.08;7.75;;;;;;;;;;5034607;28;20118;-66
2022/08/09 11:35:27;;;;;;;23.40;6.75;;;31.20;66.80;;;;;;5034750;28;20040;-64
2022/08/09 11:37:59;;;;;;;18.88;6.82;;;31.30;91.10;;;;;;5041579;28;20148;-64
2022/08/09 11:40:31;;;;;;;25.52;6.45;;;31.30;90.40;;;;;;5033640;28;20054;-65
2022/08/09 11:42:59;;;;;;;20.08;6.13;;;31.10;67.70;;;;;;5036334;28;20065;-65
2022/08/09 11:45:28;;;;;;;20.17;5.65;;;31.50;90.90;;;;;;5032687;28;20085;-66
2022/08/09 11:47:57;;;;;;;17.95;6.35;;;31.40;68.40;;;;;;5035739;28;20066;-65
2022/08/09 11:50:25;;;;;;;22.75;5.43;;;31.10;69.20;;;;;;5032092;28;20109;-66
2022/08/09 11:53:01;;;;;;;24.60;5.43;;;31.10;68.60;;;;;;5040700;28;20069;-68
2022/08/09 11:55:38;;;;;;;19.25;5.43;;;31.40;91.40;;;;;;5038357;28;20418;-65
2022/08/09 11:58:14;;;;;;;13.70;4.45;;;30.90;89.80;;;;;;5022245;28;20069;-65
2022/08/09 12:00:51;;;;;;;15.48;4.63;;;31.10;90.00;;;;;;5039878;28;20531;-66
2022/08/09 12:03:25;;;;;;;18.65;5.10;;;31.00;68.80;;;;;;5041535;28;20078;-66
2022/08/09 12:05:54;;;;;;;26.33;6.15;;;31.00;68.70;;;;;;5039864;28;20060;-65
2022/08/09 12:08:22;;;;;;;29.30;7.65;;;31.00;68.70;;;;;;5034855;28;20153;-66
2022/08/09 12:10:51;;;;;;;25.20;7.30;;;31.60;89.10;;;;;;5034308;28;20087;-65
2022/08/09 12:13:38;;;;;;;23.17;7.43;;;31.20;87.10;;;;;;5036878;28;20068;-65
2022/08/09 12:16:10;;;;;;;21.20;6.78;;;30.90;90.10;;;;;;5034041;28;20069;-65
2022/08/09 12:18:39;;;;;;;29.25;7.93;;;31.00;69.30;;;;;;5040902;28;20081;-66
2022/08/09 12:21:08;;;;;;;24.08;6.75;;;30.60;89.40;;;;;;5034269;28;20054;-65
2022/08/09 12:23:44;;;;;;;32.38;6.38;;;31.20;87.30;;;;;;5018256;28;20128;-65
2022/08/09 12:26:10;;;;;;;;;;;31.00;71.10;;;;;;5037533;28;20066;-66
2022/08/09 12:28:39;;;;;;;31.30;5.57;;;;;;;;;;5036722;28;19973;-65
2022/08/09 12:31:21;;;;;;;20.23;5.25;;;31.50;85.80;;;;;;5036070;28;20326;-65
2022/08/09 12:33:48;;;;;;;33.42;5.70;;;30.90;86.90;;;;;;5037665;28;20111;-65
2022/08/09 12:36:16;;;;;;;37.47;5.68;;;30.80;69.80;;;;;;5037306;28;20094;-65
2022/08/09 12:38:42;;;;;;;30.38;5.93;;;;;;;;;;5033703;28;20155;-66
2022/08/09 12:41:09;;;;;;;32.45;6.13;;;30.90;91.00;;;;;;5035752;28;20093;-65
2022/08/09 12:43:36;;;;;;;57.75;7.10;;;30.90;88.50;;;;;;5035931;28;20077;-66
2022/08/09 12:46:03;;;;;;;65.68;8.77;;;30.50;89.20;;;;;;5037857;28;20065;-66
2022/08/09 12:48:30;;;;;;;73.03;9.57;;;30.80;72.10;;;;;;5033217;28;20077;-66
2022/08/09 12:50:58;;;;;;;76.05;7.85;;;31.10;90.30;;;;;;5045441;28;20406;-67
2022/08/09 12:53:38;;;;;;;69.15;7.50;;;31.10;90.40;;;;;;5040012;28;20058;-65
2022/08/09 12:56:04;;;;;;;66.35;8.07;;;30.40;90.40;;;;;;5037195;28;20061;-67
2022/08/09 12:58:32;;;;;;;54.15;7.25;;;30.70;72.60;;;;;;5037312;28;20417;-66
2022/08/09 13:01:00;;;;;;;74.45;7.78;;;30.70;91.00;;;;;;5036159;28;20076;-65
2022/08/09 13:03:32;;;;;;;62.72;7.18;;;30.50;75.40;;;;;;5037648;28;20063;-66
2022/08/09 13:05:58;;;;;;;71.97;7.18;;;30.60;90.70;;;;;;5040452;28;21530;-65
2022/08/09 13:08:25;;;;;;;80.88;7.22;;;31.60;81.50;;;;;;5033202;28;20158;-68
2022/08/09 13:10:57;;;;;;;63.85;7.18;;;30.70;73.60;;;;;;5037115;28;20070;-67
2022/08/09 13:13:35;;;;;;;57.17;6.72;;;30.70;73.90;;;;;;5034543;28;20109;-65
2022/08/09 13:16:06;;;;;;;46.70;7.38;;;31.30;90.50;;;;;;5037541;28;20125;-65
2022/08/09 13:18:43;;;;;;;60.75;8.32;;;30.70;74.70;;;;;;5044591;28;20075;-65
2022/08/09 13:21:22;;;;;;;53.85;7.53;;;30.50;91.30;;;;;;5043000;28;20058;-67
2022/08/09 13:23:57;;;;;;;58.75;9.00;;;30.20;93.20;;;;;;5038478;28;20490;-67
2022/08/09 13:26:36;;;;;;;46.47;7.97;;;30.60;75.40;;;;;;5017550;28;20062;-65
2022/08/09 13:29:08;;;;;;;60.20;8.15;;;30.50;91.50;;;;;;5032367;28;20087;-65